sensor_id;sensor_type;location;lat;lon;timestamp;P1;durP1;ratioP1;P2;durP2;ratioP2
13408;SDS011;6775;49.574;11.170;2022-07-24T00:01:16;8.83;;;8.03;;
13408;SDS011;6775;49.574;11.170;2022-07-24T00:03:46;8.40;;;7.60;;
13408;SDS011;6775;49.574;11.170;2022-07-24T00:06:14;9.07;;;8.27;;
13408;SDS011;6775;49.574;11.170;2022-07-24T00:08:42;8.73;;;7.83;;
13408;SDS011;6775;49.574;11.170;2022-07-24T00:11:10;8.53;;;7.63;;
13408;SDS011;6775;49.574;11.170;2022-07-24T00:13:38;9.00;;;8.20;;
13408;SDS011;6775;49.574;11.170;2022-07-24T00:16:06;9.70;;;8.80;;
13408;SDS011;6775;49.574;11.170;2022-07-24T00:18:35;9.50;;;8.60;;
13408;SDS011;6775;49.574;11.170;2022-07-24T00:21:05;10.20;;;9.23;;
13408;SDS011;6775;49.574;11.170;2022-07-24T00:23:33;9.63;;;8.73;;
13408;SDS011;6775;49.574;11.170;2022-07-24T00:26:01;9.20;;;8.40;;
13408;SDS011;6775;49.574;11.170;2022-07-24T00:28:29;9.27;;;8.37;;
13408;SDS011;6775;49.574;11.170;2022-07-24T00:30:57;9.37;;;8.47;;
13408;SDS011;6775;49.574;11.170;2022-07-24T00:33:25;9.43;;;8.60;;
13408;SDS011;6775;49.574;11.170;2022-07-24T00:35:53;9.67;;;8.67;;
13408;SDS011;6775;49.574;11.170;2022-07-24T00:38:22;10.70;;;8.70;;
13408;SDS011;6775;49.574;11.170;2022-07-24T00:40:50;9.53;;;8.70;;
13408;SDS011;6775;49.574;11.170;2022-07-24T00:43:19;9.57;;;8.53;;
13408;SDS011;6775;49.574;11.170;2022-07-24T00:45:47;10.30;;;9.30;;
13408;SDS011;6775;49.574;11.170;2022-07-24T00:48:16;10.03;;;9.07;;
13408;SDS011;6775;49.574;11.170;2022-07-24T00:50:45;9.67;;;8.77;;
13408;SDS011;6775;49.574;11.170;2022-07-24T00:53:14;9.27;;;8.30;;
13408;SDS011;6775;49.574;11.170;2022-07-24T00:55:43;11.17;;;10.13;;
13408;SDS011;6775;49.574;11.170;2022-07-24T00:58:11;9.97;;;9.00;;
13408;SDS011;6775;49.574;11.170;2022-07-24T01:00:39;11.70;;;10.60;;
13408;SDS011;6775;49.574;11.170;2022-07-24T01:03:07;10.93;;;9.53;;
13408;SDS011;6775;49.574;11.170;2022-07-24T01:05:35;10.77;;;9.63;;
13408;SDS011;6775;49.574;11.170;2022-07-24T01:08:03;9.93;;;9.03;;
13408;SDS011;6775;49.574;11.170;2022-07-24T01:10:32;10.57;;;9.67;;
13408;SDS011;6775;49.574;11.170;2022-07-24T01:13:01;10.37;;;9.30;;
13408;SDS011;6775;49.574;11.170;2022-07-24T01:15:30;10.67;;;9.57;;
13408;SDS011;6775;49.574;11.170;2022-07-24T01:17:58;10.30;;;9.30;;
13408;SDS011;6775;49.574;11.170;2022-07-24T01:20:26;9.37;;;8.57;;
13408;SDS011;6775;49.574;11.170;2022-07-24T01:22:55;10.07;;;9.07;;
13408;SDS011;6775;49.574;11.170;2022-07-24T01:25:23;9.97;;;8.97;;
13408;SDS011;6775;49.574;11.170;2022-07-24T01:27:50;9.57;;;8.67;;
13408;SDS011;6775;49.574;11.170;2022-07-24T01:30:18;10.30;;;9.30;;
13408;SDS011;6775;49.574;11.170;2022-07-24T01:32:46;10.77;;;9.87;;
13408;SDS011;6775;49.574;11.170;2022-07-24T01:35:14;11.57;;;10.40;;
13408;SDS011;6775;49.574;11.170;2022-07-24T01:37:48;9.90;;;8.90;;
13408;SDS011;6775;49.574;11.170;2022-07-24T01:40:18;9.50;;;8.60;;
13408;SDS011;6775;49.574;11.170;2022-07-24T01:42:47;10.77;;;9.60;;
13408;SDS011;6775;49.574;11.170;2022-07-24T01:45:15;10.23;;;9.30;;
13408;SDS011;6775;49.574;11.170;2022-07-24T01:47:44;10.77;;;9.73;;
13408;SDS011;6775;49.574;11.170;2022-07-24T01:50:12;10.47;;;9.43;;
13408;SDS011;6775;49.574;11.170;2022-07-24T01:52:41;11.20;;;10.20;;
13408;SDS011;6775;49.574;11.170;2022-07-24T01:55:09;11.27;;;10.17;;
13408;SDS011;6775;49.574;11.170;2022-07-24T01:57:39;11.30;;;10.20;;
13408;SDS011;6775;49.574;11.170;2022-07-24T02:00:08;10.07;;;9.07;;
13408;SDS011;6775;49.574;11.170;2022-07-24T02:02:40;10.43;;;9.43;;
13408;SDS011;6775;49.574;11.170;2022-07-24T02:05:09;11.53;;;10.43;;
13408;SDS011;6775;49.574;11.170;2022-07-24T02:07:39;11.23;;;10.10;;
13408;SDS011;6775;49.574;11.170;2022-07-24T02:10:08;11.13;;;10.07;;
13408;SDS011;6775;49.574;11.170;2022-07-24T02:12:37;11.20;;;10.10;;
13408;SDS011;6775;49.574;11.170;2022-07-24T02:15:07;11.93;;;10.43;;
13408;SDS011;6775;49.574;11.170;2022-07-24T02:17:36;11.73;;;10.63;;
13408;SDS011;6775;49.574;11.170;2022-07-24T02:20:05;11.70;;;10.57;;
13408;SDS011;6775;49.574;11.170;2022-07-24T02:22:35;11.50;;;10.43;;
13408;SDS011;6775;49.574;11.170;2022-07-24T02:25:04;11.70;;;10.60;;
13408;SDS011;6775;49.574;11.170;2022-07-24T02:27:32;12.53;;;11.33;;
13408;SDS011;6775;49.574;11.170;2022-07-24T02:30:00;11.13;;;10.03;;
13408;SDS011;6775;49.574;11.170;2022-07-24T02:32:30;11.40;;;10.30;;
13408;SDS011;6775;49.574;11.170;2022-07-24T02:34:58;10.80;;;9.70;;
13408;SDS011;6775;49.574;11.170;2022-07-24T02:37:32;10.83;;;9.83;;
13408;SDS011;6775;49.574;11.170;2022-07-24T02:40:02;11.33;;;9.57;;
13408;SDS011;6775;49.574;11.170;2022-07-24T02:42:31;11.33;;;10.23;;
13408;SDS011;6775;49.574;11.170;2022-07-24T02:45:00;11.00;;;9.90;;
13408;SDS011;6775;49.574;11.170;2022-07-24T02:47:28;11.17;;;10.07;;
13408;SDS011;6775;49.574;11.170;2022-07-24T02:49:57;10.90;;;9.80;;
13408;SDS011;6775;49.574;11.170;2022-07-24T02:52:25;11.87;;;10.73;;
13408;SDS011;6775;49.574;11.170;2022-07-24T02:54:53;12.30;;;11.10;;
13408;SDS011;6775;49.574;11.170;2022-07-24T02:57:21;10.87;;;9.77;;
13408;SDS011;6775;49.574;11.170;2022-07-24T02:59:49;11.20;;;10.03;;
13408;SDS011;6775;49.574;11.170;2022-07-24T03:02:18;10.90;;;9.80;;
13408;SDS011;6775;49.574;11.170;2022-07-24T03:04:48;11.40;;;10.20;;
13408;SDS011;6775;49.574;11.170;2022-07-24T03:07:16;11.63;;;10.53;;
13408;SDS011;6775;49.574;11.170;2022-07-24T03:09:44;11.60;;;10.50;;
13408;SDS011;6775;49.574;11.170;2022-07-24T03:12:12;11.67;;;10.57;;
13408;SDS011;6775;49.574;11.170;2022-07-24T03:14:40;12.73;;;11.43;;
13408;SDS011;6775;49.574;11.170;2022-07-24T03:17:07;11.73;;;10.63;;
13408;SDS011;6775;49.574;11.170;2022-07-24T03:19:35;12.40;;;11.20;;
13408;SDS011;6775;49.574;11.170;2022-07-24T03:22:05;12.10;;;10.90;;
13408;SDS011;6775;49.574;11.170;2022-07-24T03:24:33;11.87;;;10.73;;
13408;SDS011;6775;49.574;11.170;2022-07-24T03:27:01;10.90;;;9.83;;
13408;SDS011;6775;49.574;11.170;2022-07-24T03:29:29;11.00;;;9.90;;
13408;SDS011;6775;49.574;11.170;2022-07-24T03:31:57;9.93;;;8.93;;
13408;SDS011;6775;49.574;11.170;2022-07-24T03:34:25;11.37;;;10.27;;
13408;SDS011;6775;49.574;11.170;2022-07-24T03:36:53;12.43;;;11.23;;
13408;SDS011;6775;49.574;11.170;2022-07-24T03:39:23;10.67;;;9.57;;
13408;SDS011;6775;49.574;11.170;2022-07-24T03:41:51;11.90;;;10.67;;
13408;SDS011;6775;49.574;11.170;2022-07-24T03:44:19;11.07;;;9.97;;
13408;SDS011;6775;49.574;11.170;2022-07-24T03:46:47;10.93;;;9.83;;
13408;SDS011;6775;49.574;11.170;2022-07-24T03:49:15;11.40;;;10.23;;
13408;SDS011;6775;49.574;11.170;2022-07-24T03:51:44;11.90;;;10.77;;
13408;SDS011;6775;49.574;11.170;2022-07-24T03:54:13;10.87;;;9.87;;
13408;SDS011;6775;49.574;11.170;2022-07-24T03:56:42;12.33;;;11.13;;
13408;SDS011;6775;49.574;11.170;2022-07-24T03:59:10;11.27;;;10.10;;
13408;SDS011;6775;49.574;11.170;2022-07-24T04:01:38;12.10;;;10.67;;
13408;SDS011;6775;49.574;11.170;2022-07-24T04:04:06;12.00;;;10.80;;
13408;SDS011;6775;49.574;11.170;2022-07-24T04:06:34;12.53;;;11.23;;
13408;SDS011;6775;49.574;11.170;2022-07-24T04:09:03;11.43;;;10.33;;
13408;SDS011;6775;49.574;11.170;2022-07-24T04:11:33;11.80;;;10.60;;
13408;SDS011;6775;49.574;11.170;2022-07-24T04:14:02;12.43;;;11.13;;
13408;SDS011;6775;49.574;11.170;2022-07-24T04:16:30;12.07;;;10.93;;
13408;SDS011;6775;49.574;11.170;2022-07-24T04:18:58;11.93;;;10.20;;
13408;SDS011;6775;49.574;11.170;2022-07-24T04:21:32;12.17;;;10.40;;
13408;SDS011;6775;49.574;11.170;2022-07-24T04:24:00;12.97;;;11.30;;
13408;SDS011;6775;49.574;11.170;2022-07-24T04:26:28;12.03;;;10.87;;
13408;SDS011;6775;49.574;11.170;2022-07-24T04:28:56;12.03;;;10.63;;
13408;SDS011;6775;49.574;11.170;2022-07-24T04:31:25;13.43;;;11.97;;
13408;SDS011;6775;49.574;11.170;2022-07-24T04:33:54;13.73;;;12.10;;
13408;SDS011;6775;49.574;11.170;2022-07-24T04:36:22;12.97;;;11.13;;
13408;SDS011;6775;49.574;11.170;2022-07-24T04:38:50;12.20;;;10.97;;
13408;SDS011;6775;49.574;11.170;2022-07-24T04:41:18;11.67;;;10.47;;
13408;SDS011;6775;49.574;11.170;2022-07-24T04:43:46;12.40;;;11.10;;
13408;SDS011;6775;49.574;11.170;2022-07-24T04:46:14;12.10;;;10.80;;
13408;SDS011;6775;49.574;11.170;2022-07-24T04:48:44;13.77;;;12.33;;
13408;SDS011;6775;49.574;11.170;2022-07-24T04:51:12;11.93;;;10.73;;
13408;SDS011;6775;49.574;11.170;2022-07-24T04:53:40;12.73;;;11.53;;
13408;SDS011;6775;49.574;11.170;2022-07-24T04:56:08;12.43;;;11.13;;
13408;SDS011;6775;49.574;11.170;2022-07-24T04:58:36;13.27;;;12.00;;
13408;SDS011;6775;49.574;11.170;2022-07-24T05:01:04;12.77;;;11.47;;
13408;SDS011;6775;49.574;11.170;2022-07-24T05:03:32;13.37;;;11.67;;
13408;SDS011;6775;49.574;11.170;2022-07-24T05:06:01;13.47;;;12.20;;
13408;SDS011;6775;49.574;11.170;2022-07-24T05:08:30;15.03;;;13.47;;
13408;SDS011;6775;49.574;11.170;2022-07-24T05:10:58;13.67;;;12.27;;
13408;SDS011;6775;49.574;11.170;2022-07-24T05:13:26;13.00;;;11.70;;
13408;SDS011;6775;49.574;11.170;2022-07-24T05:15:54;12.30;;;11.17;;
13408;SDS011;6775;49.574;11.170;2022-07-24T05:18:22;12.20;;;11.00;;
13408;SDS011;6775;49.574;11.170;2022-07-24T05:20:50;11.73;;;10.67;;
13408;SDS011;6775;49.574;11.170;2022-07-24T05:23:19;11.90;;;10.80;;
13408;SDS011;6775;49.574;11.170;2022-07-24T05:25:47;12.00;;;10.80;;
13408;SDS011;6775;49.574;11.170;2022-07-24T05:28:15;11.67;;;10.50;;
13408;SDS011;6775;49.574;11.170;2022-07-24T05:30:44;11.90;;;10.80;;
13408;SDS011;6775;49.574;11.170;2022-07-24T05:33:12;11.77;;;10.67;;
13408;SDS011;6775;49.574;11.170;2022-07-24T05:35:40;12.37;;;11.17;;
13408;SDS011;6775;49.574;11.170;2022-07-24T05:38:13;11.93;;;10.83;;
13408;SDS011;6775;49.574;11.170;2022-07-24T05:40:43;11.10;;;10.10;;
13408;SDS011;6775;49.574;11.170;2022-07-24T05:43:11;10.60;;;9.60;;
13408;SDS011;6775;49.574;11.170;2022-07-24T05:45:39;9.30;;;8.40;;
13408;SDS011;6775;49.574;11.170;2022-07-24T05:48:07;10.57;;;9.57;;
13408;SDS011;6775;49.574;11.170;2022-07-24T05:50:35;9.97;;;9.07;;
13408;SDS011;6775;49.574;11.170;2022-07-24T05:53:03;8.90;;;8.10;;
13408;SDS011;6775;49.574;11.170;2022-07-24T05:55:30;9.13;;;8.23;;
13408;SDS011;6775;49.574;11.170;2022-07-24T05:58:00;9.10;;;8.20;;
13408;SDS011;6775;49.574;11.170;2022-07-24T06:00:29;9.27;;;8.37;;
13408;SDS011;6775;49.574;11.170;2022-07-24T06:02:57;9.00;;;8.20;;
13408;SDS011;6775;49.574;11.170;2022-07-24T06:05:25;9.50;;;8.60;;
13408;SDS011;6775;49.574;11.170;2022-07-24T06:07:53;8.20;;;7.47;;
13408;SDS011;6775;49.574;11.170;2022-07-24T06:10:21;8.90;;;8.10;;
13408;SDS011;6775;49.574;11.170;2022-07-24T06:12:51;9.10;;;8.23;;
13408;SDS011;6775;49.574;11.170;2022-07-24T06:15:21;8.83;;;7.93;;
13408;SDS011;6775;49.574;11.170;2022-07-24T06:17:49;8.13;;;7.40;;
13408;SDS011;6775;49.574;11.170;2022-07-24T06:20:17;8.70;;;7.90;;
13408;SDS011;6775;49.574;11.170;2022-07-24T06:22:45;7.87;;;7.17;;
13408;SDS011;6775;49.574;11.170;2022-07-24T06:25:15;8.13;;;7.47;;
13408;SDS011;6775;49.574;11.170;2022-07-24T06:27:45;8.00;;;7.20;;
13408;SDS011;6775;49.574;11.170;2022-07-24T06:30:14;7.80;;;7.07;;
13408;SDS011;6775;49.574;11.170;2022-07-24T06:32:45;8.30;;;7.60;;
13408;SDS011;6775;49.574;11.170;2022-07-24T06:35:13;7.17;;;6.53;;
13408;SDS011;6775;49.574;11.170;2022-07-24T06:37:42;7.63;;;6.93;;
13408;SDS011;6775;49.574;11.170;2022-07-24T06:40:13;7.97;;;7.17;;
13408;SDS011;6775;49.574;11.170;2022-07-24T06:42:41;8.77;;;7.97;;
13408;SDS011;6775;49.574;11.170;2022-07-24T06:45:10;8.23;;;7.53;;
13408;SDS011;6775;49.574;11.170;2022-07-24T06:47:39;8.77;;;7.97;;
13408;SDS011;6775;49.574;11.170;2022-07-24T06:50:09;8.33;;;7.63;;
13408;SDS011;6775;49.574;11.170;2022-07-24T06:52:38;7.67;;;7.03;;
13408;SDS011;6775;49.574;11.170;2022-07-24T06:55:07;7.77;;;7.07;;
13408;SDS011;6775;49.574;11.170;2022-07-24T06:57:35;7.77;;;7.17;;
13408;SDS011;6775;49.574;11.170;2022-07-24T07:00:04;9.37;;;8.57;;
13408;SDS011;6775;49.574;11.170;2022-07-24T07:02:34;8.90;;;8.10;;
13408;SDS011;6775;49.574;11.170;2022-07-24T07:05:02;11.03;;;10.03;;
13408;SDS011;6775;49.574;11.170;2022-07-24T07:07:32;9.40;;;8.60;;
13408;SDS011;6775;49.574;11.170;2022-07-24T07:10:02;9.10;;;8.30;;
13408;SDS011;6775;49.574;11.170;2022-07-24T07:12:30;8.33;;;7.63;;
13408;SDS011;6775;49.574;11.170;2022-07-24T07:15:05;8.37;;;7.67;;
13408;SDS011;6775;49.574;11.170;2022-07-24T07:17:36;8.47;;;7.77;;
13408;SDS011;6775;49.574;11.170;2022-07-24T07:20:05;7.97;;;7.27;;
13408;SDS011;6775;49.574;11.170;2022-07-24T07:22:36;8.33;;;7.63;;
13408;SDS011;6775;49.574;11.170;2022-07-24T07:25:04;7.10;;;6.50;;
13408;SDS011;6775;49.574;11.170;2022-07-24T07:27:33;7.10;;;6.50;;
13408;SDS011;6775;49.574;11.170;2022-07-24T07:30:02;7.30;;;6.70;;
13408;SDS011;6775;49.574;11.170;2022-07-24T07:32:31;8.43;;;7.73;;
13408;SDS011;6775;49.574;11.170;2022-07-24T07:34:59;8.90;;;8.10;;
13408;SDS011;6775;49.574;11.170;2022-07-24T07:37:30;9.53;;;8.70;;
13408;SDS011;6775;49.574;11.170;2022-07-24T07:39:59;10.43;;;9.23;;
13408;SDS011;6775;49.574;11.170;2022-07-24T07:42:28;9.97;;;8.97;;
13408;SDS011;6775;49.574;11.170;2022-07-24T07:44:56;9.57;;;8.70;;
13408;SDS011;6775;49.574;11.170;2022-07-24T07:47:24;9.20;;;8.50;;
13408;SDS011;6775;49.574;11.170;2022-07-24T07:49:51;9.00;;;8.20;;
13408;SDS011;6775;49.574;11.170;2022-07-24T07:52:19;8.90;;;8.10;;
13408;SDS011;6775;49.574;11.170;2022-07-24T07:54:47;8.07;;;7.37;;
13408;SDS011;6775;49.574;11.170;2022-07-24T07:57:17;8.13;;;7.53;;
13408;SDS011;6775;49.574;11.170;2022-07-24T07:59:45;7.90;;;7.30;;
13408;SDS011;6775;49.574;11.170;2022-07-24T08:02:14;7.53;;;6.93;;
13408;SDS011;6775;49.574;11.170;2022-07-24T08:04:43;7.53;;;6.87;;
13408;SDS011;6775;49.574;11.170;2022-07-24T08:07:11;9.53;;;8.47;;
13408;SDS011;6775;49.574;11.170;2022-07-24T08:09:39;9.93;;;9.03;;
13408;SDS011;6775;49.574;11.170;2022-07-24T08:12:10;9.77;;;9.03;;
13408;SDS011;6775;49.574;11.170;2022-07-24T08:14:43;8.90;;;8.10;;
13408;SDS011;6775;49.574;11.170;2022-07-24T08:17:11;9.07;;;8.37;;
13408;SDS011;6775;49.574;11.170;2022-07-24T08:19:40;9.13;;;8.33;;
13408;SDS011;6775;49.574;11.170;2022-07-24T08:22:08;7.97;;;7.37;;
13408;SDS011;6775;49.574;11.170;2022-07-24T08:24:36;8.10;;;7.50;;
13408;SDS011;6775;49.574;11.170;2022-07-24T08:27:04;8.10;;;7.40;;
13408;SDS011;6775;49.574;11.170;2022-07-24T08:29:32;8.10;;;7.50;;
13408;SDS011;6775;49.574;11.170;2022-07-24T08:32:02;7.27;;;6.67;;
13408;SDS011;6775;49.574;11.170;2022-07-24T08:34:30;7.00;;;6.40;;
13408;SDS011;6775;49.574;11.170;2022-07-24T08:36:58;7.87;;;7.13;;
13408;SDS011;6775;49.574;11.170;2022-07-24T08:39:26;8.13;;;7.40;;
13408;SDS011;6775;49.574;11.170;2022-07-24T08:41:54;7.80;;;7.10;;
13408;SDS011;6775;49.574;11.170;2022-07-24T08:44:22;7.90;;;7.17;;
13408;SDS011;6775;49.574;11.170;2022-07-24T08:46:50;8.03;;;7.33;;
13408;SDS011;6775;49.574;11.170;2022-07-24T08:49:22;6.60;;;6.00;;
13408;SDS011;6775;49.574;11.170;2022-07-24T08:51:52;6.77;;;6.10;;
13408;SDS011;6775;49.574;11.170;2022-07-24T08:54:24;7.20;;;6.50;;
13408;SDS011;6775;49.574;11.170;2022-07-24T08:56:52;7.07;;;6.40;;
13408;SDS011;6775;49.574;11.170;2022-07-24T08:59:20;6.90;;;6.30;;
13408;SDS011;6775;49.574;11.170;2022-07-24T09:01:52;6.73;;;6.13;;
13408;SDS011;6775;49.574;11.170;2022-07-24T09:04:37;5.93;;;5.43;;
13408;SDS011;6775;49.574;11.170;2022-07-24T09:07:07;5.33;;;4.93;;
13408;SDS011;6775;49.574;11.170;2022-07-24T09:09:37;5.23;;;4.83;;
13408;SDS011;6775;49.574;11.170;2022-07-24T09:12:07;5.80;;;5.10;;
13408;SDS011;6775;49.574;11.170;2022-07-24T09:14:37;5.70;;;5.20;;
13408;SDS011;6775;49.574;11.170;2022-07-24T09:17:07;5.73;;;5.33;;
13408;SDS011;6775;49.574;11.170;2022-07-24T09:19:49;6.43;;;5.93;;
13408;SDS011;6775;49.574;11.170;2022-07-24T09:22:23;6.67;;;6.10;;
13408;SDS011;6775;49.574;11.170;2022-07-24T09:25:03;6.00;;;5.50;;
13408;SDS011;6775;49.574;11.170;2022-07-24T09:27:33;6.90;;;6.30;;
13408;SDS011;6775;49.574;11.170;2022-07-24T09:30:01;7.10;;;6.50;;
13408;SDS011;6775;49.574;11.170;2022-07-24T09:32:37;6.93;;;6.30;;
13408;SDS011;6775;49.574;11.170;2022-07-24T09:35:08;7.20;;;6.60;;
13408;SDS011;6775;49.574;11.170;2022-07-24T09:37:36;7.80;;;7.10;;
13408;SDS011;6775;49.574;11.170;2022-07-24T09:40:06;7.63;;;6.93;;
13408;SDS011;6775;49.574;11.170;2022-07-24T09:42:35;6.67;;;6.13;;
13408;SDS011;6775;49.574;11.170;2022-07-24T09:45:06;7.10;;;6.50;;
13408;SDS011;6775;49.574;11.170;2022-07-24T09:47:38;7.20;;;6.60;;
13408;SDS011;6775;49.574;11.170;2022-07-24T09:50:12;6.90;;;6.30;;
13408;SDS011;6775;49.574;11.170;2022-07-24T09:52:42;5.87;;;5.47;;
13408;SDS011;6775;49.574;11.170;2022-07-24T09:55:22;5.90;;;5.40;;
13408;SDS011;6775;49.574;11.170;2022-07-24T09:57:51;6.50;;;6.00;;
13408;SDS011;6775;49.574;11.170;2022-07-24T10:00:19;7.00;;;6.43;;
13408;SDS011;6775;49.574;11.170;2022-07-24T10:02:47;6.70;;;6.10;;
13408;SDS011;6775;49.574;11.170;2022-07-24T10:05:19;6.47;;;5.90;;
13408;SDS011;6775;49.574;11.170;2022-07-24T10:07:51;5.97;;;5.47;;
13408;SDS011;6775;49.574;11.170;2022-07-24T10:10:23;6.43;;;5.93;;
13408;SDS011;6775;49.574;11.170;2022-07-24T10:12:54;6.30;;;5.80;;
13408;SDS011;6775;49.574;11.170;2022-07-24T10:15:22;6.57;;;6.00;;
13408;SDS011;6775;49.574;11.170;2022-07-24T10:18:10;6.50;;;6.00;;
13408;SDS011;6775;49.574;11.170;2022-07-24T10:20:44;6.43;;;5.93;;
13408;SDS011;6775;49.574;11.170;2022-07-24T10:26:06;6.77;;;6.27;;
13408;SDS011;6775;49.574;11.170;2022-07-24T10:28:36;6.20;;;5.70;;
13408;SDS011;6775;49.574;11.170;2022-07-24T10:31:07;5.53;;;5.13;;
13408;SDS011;6775;49.574;11.170;2022-07-24T10:33:36;6.07;;;5.57;;
13408;SDS011;6775;49.574;11.170;2022-07-24T10:36:11;5.60;;;5.20;;
13408;SDS011;6775;49.574;11.170;2022-07-24T10:38:54;5.87;;;5.47;;
13408;SDS011;6775;49.574;11.170;2022-07-24T10:41:24;5.13;;;4.73;;
13408;SDS011;6775;49.574;11.170;2022-07-24T10:49:43;6.40;;;5.80;;
13408;SDS011;6775;49.574;11.170;2022-07-24T10:52:24;6.57;;;5.93;;
13408;SDS011;6775;49.574;11.170;2022-07-24T10:58:03;6.27;;;5.77;;
13408;SDS011;6775;49.574;11.170;2022-07-24T11:00:40;6.67;;;6.00;;
13408;SDS011;6775;49.574;11.170;2022-07-24T11:03:17;5.80;;;5.40;;
13408;SDS011;6775;49.574;11.170;2022-07-24T11:06:01;5.60;;;5.20;;
13408;SDS011;6775;49.574;11.170;2022-07-24T11:08:35;5.57;;;5.17;;
13408;SDS011;6775;49.574;11.170;2022-07-24T11:11:08;5.70;;;5.30;;
13408;SDS011;6775;49.574;11.170;2022-07-24T11:13:41;6.23;;;5.73;;
13408;SDS011;6775;49.574;11.170;2022-07-24T11:16:17;6.13;;;5.57;;
13408;SDS011;6775;49.574;11.170;2022-07-24T11:22:02;6.47;;;5.97;;
13408;SDS011;6775;49.574;11.170;2022-07-24T11:27:43;6.07;;;5.53;;
13408;SDS011;6775;49.574;11.170;2022-07-24T11:30:19;6.10;;;5.60;;
13408;SDS011;6775;49.574;11.170;2022-07-24T11:32:47;6.27;;;5.77;;
13408;SDS011;6775;49.574;11.170;2022-07-24T11:35:15;5.13;;;4.73;;
13408;SDS011;6775;49.574;11.170;2022-07-24T11:37:44;5.50;;;5.10;;
13408;SDS011;6775;49.574;11.170;2022-07-24T11:40:17;5.40;;;4.90;;
13408;SDS011;6775;49.574;11.170;2022-07-24T11:42:53;5.83;;;5.33;;
13408;SDS011;6775;49.574;11.170;2022-07-24T11:45:22;5.80;;;5.30;;
13408;SDS011;6775;49.574;11.170;2022-07-24T11:47:50;6.10;;;5.60;;
13408;SDS011;6775;49.574;11.170;2022-07-24T11:50:21;5.53;;;5.03;;
13408;SDS011;6775;49.574;11.170;2022-07-24T11:52:51;5.23;;;4.83;;
13408;SDS011;6775;49.574;11.170;2022-07-24T11:55:21;5.37;;;4.93;;
13408;SDS011;6775;49.574;11.170;2022-07-24T11:57:51;5.30;;;4.90;;
13408;SDS011;6775;49.574;11.170;2022-07-24T12:00:40;5.13;;;4.73;;
13408;SDS011;6775;49.574;11.170;2022-07-24T12:03:08;5.30;;;4.90;;
13408;SDS011;6775;49.574;11.170;2022-07-24T12:05:37;5.37;;;4.97;;
13408;SDS011;6775;49.574;11.170;2022-07-24T12:08:15;5.30;;;4.80;;
13408;SDS011;6775;49.574;11.170;2022-07-24T12:10:46;6.17;;;5.57;;
13408;SDS011;6775;49.574;11.170;2022-07-24T12:13:15;5.70;;;5.30;;
13408;SDS011;6775;49.574;11.170;2022-07-24T12:15:43;5.70;;;5.20;;
13408;SDS011;6775;49.574;11.170;2022-07-24T12:18:11;6.03;;;5.30;;
13408;SDS011;6775;49.574;11.170;2022-07-24T12:20:40;5.20;;;4.80;;
13408;SDS011;6775;49.574;11.170;2022-07-24T12:23:10;5.17;;;4.77;;
13408;SDS011;6775;49.574;11.170;2022-07-24T12:25:39;5.67;;;5.17;;
13408;SDS011;6775;49.574;11.170;2022-07-24T12:28:10;5.27;;;4.87;;
13408;SDS011;6775;49.574;11.170;2022-07-24T12:30:39;5.20;;;4.80;;
13408;SDS011;6775;49.574;11.170;2022-07-24T12:33:09;6.07;;;5.47;;
13408;SDS011;6775;49.574;11.170;2022-07-24T12:35:54;5.87;;;5.37;;
13408;SDS011;6775;49.574;11.170;2022-07-24T12:38:24;5.70;;;5.20;;
13408;SDS011;6775;49.574;11.170;2022-07-24T12:41:00;5.97;;;5.47;;
13408;SDS011;6775;49.574;11.170;2022-07-24T12:43:31;6.03;;;5.43;;
13408;SDS011;6775;49.574;11.170;2022-07-24T12:46:06;5.40;;;5.00;;
13408;SDS011;6775;49.574;11.170;2022-07-24T12:48:35;5.47;;;5.07;;
13408;SDS011;6775;49.574;11.170;2022-07-24T12:51:05;5.70;;;5.20;;
13408;SDS011;6775;49.574;11.170;2022-07-24T12:53:37;5.70;;;5.20;;
13408;SDS011;6775;49.574;11.170;2022-07-24T12:56:07;5.43;;;5.03;;
13408;SDS011;6775;49.574;11.170;2022-07-24T12:58:54;5.10;;;4.70;;
13408;SDS011;6775;49.574;11.170;2022-07-24T13:01:25;5.17;;;4.77;;
13408;SDS011;6775;49.574;11.170;2022-07-24T13:03:58;5.33;;;4.93;;
13408;SDS011;6775;49.574;11.170;2022-07-24T13:06:35;5.60;;;5.10;;
13408;SDS011;6775;49.574;11.170;2022-07-24T13:09:04;5.43;;;5.03;;
13408;SDS011;6775;49.574;11.170;2022-07-24T13:11:34;4.87;;;4.47;;
13408;SDS011;6775;49.574;11.170;2022-07-24T13:14:04;5.60;;;5.20;;
13408;SDS011;6775;49.574;11.170;2022-07-24T13:16:34;5.17;;;4.77;;
13408;SDS011;6775;49.574;11.170;2022-07-24T13:19:03;5.00;;;4.60;;
13408;SDS011;6775;49.574;11.170;2022-07-24T13:21:32;4.63;;;4.23;;
13408;SDS011;6775;49.574;11.170;2022-07-24T13:24:00;5.37;;;4.97;;
13408;SDS011;6775;49.574;11.170;2022-07-24T13:26:29;4.37;;;4.07;;
13408;SDS011;6775;49.574;11.170;2022-07-24T13:28:57;5.67;;;5.20;;
13408;SDS011;6775;49.574;11.170;2022-07-24T13:31:26;4.77;;;4.47;;
13408;SDS011;6775;49.574;11.170;2022-07-24T13:33:54;5.00;;;4.70;;
13408;SDS011;6775;49.574;11.170;2022-07-24T13:36:22;6.10;;;5.60;;
13408;SDS011;6775;49.574;11.170;2022-07-24T13:38:50;6.03;;;5.53;;
13408;SDS011;6775;49.574;11.170;2022-07-24T13:41:19;5.73;;;5.23;;
13408;SDS011;6775;49.574;11.170;2022-07-24T13:43:47;6.03;;;5.53;;
13408;SDS011;6775;49.574;11.170;2022-07-24T13:46:16;5.03;;;4.63;;
13408;SDS011;6775;49.574;11.170;2022-07-24T13:48:48;5.60;;;5.10;;
13408;SDS011;6775;49.574;11.170;2022-07-24T13:51:23;5.50;;;5.10;;
13408;SDS011;6775;49.574;11.170;2022-07-24T13:53:51;5.93;;;5.43;;
13408;SDS011;6775;49.574;11.170;2022-07-24T13:56:19;5.53;;;5.13;;
13408;SDS011;6775;49.574;11.170;2022-07-24T13:58:49;4.93;;;4.53;;
13408;SDS011;6775;49.574;11.170;2022-07-24T14:01:17;5.20;;;4.80;;
13408;SDS011;6775;49.574;11.170;2022-07-24T14:03:58;5.80;;;5.30;;
13408;SDS011;6775;49.574;11.170;2022-07-24T14:06:46;5.83;;;5.43;;
13408;SDS011;6775;49.574;11.170;2022-07-24T14:09:14;5.17;;;4.77;;
13408;SDS011;6775;49.574;11.170;2022-07-24T14:11:43;5.83;;;5.33;;
13408;SDS011;6775;49.574;11.170;2022-07-24T14:14:12;4.60;;;4.20;;
13408;SDS011;6775;49.574;11.170;2022-07-24T14:16:40;5.10;;;4.70;;
13408;SDS011;6775;49.574;11.170;2022-07-24T14:19:09;5.23;;;4.83;;
13408;SDS011;6775;49.574;11.170;2022-07-24T14:21:37;5.27;;;4.87;;
13408;SDS011;6775;49.574;11.170;2022-07-24T14:24:06;5.83;;;5.30;;
13408;SDS011;6775;49.574;11.170;2022-07-24T14:26:41;5.97;;;5.47;;
13408;SDS011;6775;49.574;11.170;2022-07-24T14:29:09;5.87;;;5.37;;
13408;SDS011;6775;49.574;11.170;2022-07-24T14:31:37;5.93;;;5.40;;
13408;SDS011;6775;49.574;11.170;2022-07-24T14:34:05;5.47;;;5.07;;
13408;SDS011;6775;49.574;11.170;2022-07-24T14:36:35;5.93;;;5.43;;
13408;SDS011;6775;49.574;11.170;2022-07-24T14:39:03;5.20;;;4.77;;
13408;SDS011;6775;49.574;11.170;2022-07-24T14:41:32;6.23;;;5.73;;
13408;SDS011;6775;49.574;11.170;2022-07-24T14:44:00;6.03;;;5.53;;
13408;SDS011;6775;49.574;11.170;2022-07-24T14:46:35;5.27;;;4.87;;
13408;SDS011;6775;49.574;11.170;2022-07-24T14:49:03;5.60;;;5.10;;
13408;SDS011;6775;49.574;11.170;2022-07-24T14:51:31;5.20;;;4.80;;
13408;SDS011;6775;49.574;11.170;2022-07-24T14:54:01;5.17;;;4.77;;
13408;SDS011;6775;49.574;11.170;2022-07-24T14:56:29;4.60;;;4.30;;
13408;SDS011;6775;49.574;11.170;2022-07-24T14:58:57;4.20;;;3.90;;
13408;SDS011;6775;49.574;11.170;2022-07-24T15:01:25;4.83;;;4.50;;
13408;SDS011;6775;49.574;11.170;2022-07-24T15:03:53;5.53;;;5.07;;
13408;SDS011;6775;49.574;11.170;2022-07-24T15:06:21;5.93;;;5.43;;
13408;SDS011;6775;49.574;11.170;2022-07-24T15:08:49;5.03;;;4.63;;
13408;SDS011;6775;49.574;11.170;2022-07-24T15:11:18;5.10;;;4.70;;
13408;SDS011;6775;49.574;11.170;2022-07-24T15:13:47;5.20;;;4.77;;